Time;durP1;ratioP1;P1;durP2;ratioP2;P2;SDS_P1;SDS_P2;PMS_P1;PMS_P2;Temp;Humidity;BMP_temperature;BMP_pressure;BME280_temperature;BME280_humidity;BME280_pressure;Samples;Min_cycle;Max_cycle;Signal;HPM_P1;HPM_P2
2022/07/30 03:01:26;;;;;;;4.07;3.30;;;27.10;49.60;;;;;;5464785;23;45868;-62
2022/07/30 03:03:53;;;;;;;3.85;3.25;;;27.00;49.60;;;;;;4946702;28;46016;-69
2022/07/30 03:06:19;;;;;;;3.72;3.42;;;27.10;49.50;;;;;;4952550;28;45496;-65
2022/07/30 03:08:45;;;;;;;4.40;3.20;;;27.10;49.40;;;;;;4949467;28;45216;-65
2022/07/30 03:11:12;;;;;;;3.60;3.13;;;27.10;49.40;;;;;;4945206;28;45245;-65
2022/07/30 03:13:38;;;;;;;5.75;2.90;;;27.10;49.30;;;;;;4946964;28;46233;-69
2022/07/30 03:16:08;;;;;;;3.80;2.78;;;27.10;49.30;;;;;;4947102;28;45568;-65
2022/07/30 03:18:36;;;;;;;3.67;2.97;;;27.10;49.30;;;;;;4946578;28;45272;-67
2022/07/30 03:21:03;;;;;;;3.70;3.33;;;27.10;49.20;;;;;;4955884;28;45444;-62
2022/07/30 03:23:29;;;;;;;3.17;2.65;;;27.10;49.20;;;;;;4943703;28;46229;-63
2022/07/30 03:26:00;;;;;;;3.10;2.80;;;27.10;49.20;;;;;;4943464;28;45228;-63
2022/07/30 03:28:30;;;;;;;3.40;3.10;;;27.10;49.20;;;;;;4930029;28;45494;-63
2022/07/30 03:30:57;;;;;;;3.28;2.70;;;27.10;49.10;;;;;;4946295;28;45074;-63
2022/07/30 03:33:23;;;;;;;4.43;2.70;;;27.10;49.10;;;;;;4950431;28;46020;-63
2022/07/30 03:35:49;;;;;;;3.53;2.95;;;27.10;49.00;;;;;;4944428;28;45461;-63
2022/07/30 03:38:16;;;;;;;3.10;2.72;;;27.10;49.00;;;;;;4941443;28;45301;-66
2022/07/30 03:40:43;;;;;;;2.80;2.60;;;27.10;48.90;;;;;;4931871;28;45332;-64
2022/07/30 03:43:11;;;;;;;3.17;2.50;;;27.00;48.90;;;;;;4932064;28;46389;-64
2022/07/30 03:45:38;;;;;;;2.78;2.40;;;27.10;48.90;;;;;;4939731;28;44622;-70
2022/07/30 03:48:06;;;;;;;4.78;2.95;;;27.10;48.90;;;;;;4948554;28;45543;-63
2022/07/30 03:50:36;;;;;;;2.25;2.10;;;27.10;48.80;;;;;;4947401;28;45151;-68
2022/07/30 03:53:04;;;;;;;5.25;2.97;;;27.00;48.80;;;;;;4944694;28;46485;-64
2022/07/30 03:55:31;;;;;;;2.83;2.58;;;27.00;48.80;;;;;;4942733;28;45426;-63
2022/07/30 03:57:57;;;;;;;4.20;3.25;;;27.00;48.80;;;;;;4942265;28;45514;-64
2022/07/30 04:00:24;;;;;;;3.42;3.13;;;27.00;48.90;;;;;;4942860;28;45069;-66
2022/07/30 04:02:50;;;;;;;3.15;2.70;;;26.90;48.90;;;;;;4932868;28;45943;-63
2022/07/30 04:05:16;;;;;;;3.47;2.92;;;26.90;49.00;;;;;;4941631;28;45087;-66
2022/07/30 04:07:43;;;;;;;2.88;2.53;;;26.90;49.00;;;;;;4941131;28;45542;-66
2022/07/30 04:10:09;;;;;;;2.58;2.35;;;26.90;49.10;;;;;;4947813;28;45263;-61
2022/07/30 04:12:35;;;;;;;4.72;3.05;;;26.90;49.10;;;;;;4944197;28;46039;-67
2022/07/30 04:15:02;;;;;;;4.20;3.72;;;26.90;49.10;;;;;;4941733;28;44911;-66
2022/07/30 04:17:39;;;;;;;4.00;3.58;;;26.80;49.20;;;;;;4940931;28;45621;-64
2022/07/30 04:20:09;;;;;;;4.57;3.63;;;26.80;49.50;;;;;;4923367;28;45212;-67
2022/07/30 04:22:35;;;;;;;3.88;3.53;;;26.70;49.70;;;;;;4934774;28;47066;-62
2022/07/30 04:25:02;;;;;;;3.40;3.00;;;26.60;49.80;;;;;;4947174;28;44915;-65
2022/07/30 04:27:28;;;;;;;3.83;3.53;;;26.60;49.90;;;;;;4942792;28;46084;-64
2022/07/30 04:29:54;;;;;;;3.72;3.33;;;26.50;49.90;;;;;;4923975;28;44679;-66
2022/07/30 04:32:21;;;;;;;3.40;3.05;;;26.50;49.90;;;;;;4931378;28;46970;-62
2022/07/30 04:34:53;;;;;;;5.45;3.47;;;26.50;50.10;;;;;;4951574;28;45216;-64
2022/07/30 04:37:21;;;;;;;3.67;3.35;;;26.50;50.00;;;;;;4946947;28;45487;-64
2022/07/30 04:39:53;;;;;;;3.50;3.20;;;26.50;49.90;;;;;;4951534;28;44627;-66
2022/07/30 04:42:20;;;;;;;4.47;2.70;;;26.60;49.90;;;;;;4941648;28;46006;-62
2022/07/30 04:44:47;;;;;;;4.00;3.65;;;26.60;49.90;;;;;;4945772;28;45320;-65
2022/07/30 04:47:13;;;;;;;4.03;3.72;;;26.50;50.10;;;;;;4950290;28;45489;-63
2022/07/30 04:49:40;;;;;;;4.28;3.88;;;26.40;50.20;;;;;;4947656;28;45280;-63
2022/07/30 04:52:06;;;;;;;6.38;3.95;;;26.40;50.30;;;;;;4937374;28;46292;-62
2022/07/30 04:54:37;;;;;;;3.92;3.63;;;26.40;50.40;;;;;;4945404;28;45559;-63
2022/07/30 04:57:04;;;;;;;3.85;3.50;;;26.40;50.60;;;;;;4935322;28;45228;-62
2022/07/30 04:59:30;;;;;;;4.15;3.47;;;26.30;50.50;;;;;;4949800;28;44975;-64
2022/07/30 05:01:58;;;;;;;4.82;4.43;;;26.30;50.60;;;;;;4949700;28;46202;-65
2022/07/30 05:04:24;;;;;;;5.78;4.60;;;26.30;50.70;;;;;;4932116;28;45034;-65
2022/07/30 05:06:50;;;;;;;5.03;4.32;;;26.30;50.80;;;;;;4950480;28;45383;-61
2022/07/30 05:09:17;;;;;;;5.15;4.10;;;26.20;50.80;;;;;;4948200;28;44805;-62
2022/07/30 05:11:50;;;;;;;3.58;3.28;;;26.30;50.80;;;;;;4934849;28;46125;-59
2022/07/30 05:14:16;;;;;;;4.65;4.25;;;26.30;51.00;;;;;;4949389;28;45512;-62
2022/07/30 05:16:42;;;;;;;4.53;4.13;;;26.30;50.80;;;;;;4947209;28;45164;-68
2022/07/30 05:19:09;;;;;;;5.13;4.53;;;26.30;50.90;;;;;;4948578;28;45847;-63
2022/07/30 05:21:35;;;;;;;6.00;5.07;;;26.20;51.10;;;;;;4940136;28;45914;-66
2022/07/30 05:24:01;;;;;;;6.57;4.85;;;26.20;51.20;;;;;;4945471;28;44918;-66
2022/07/30 05:26:28;;;;;;;5.60;5.10;;;26.10;51.20;;;;;;4952324;28;45231;-63
2022/07/30 05:28:54;;;;;;;5.47;4.93;;;26.10;51.30;;;;;;4950057;28;45244;-65
2022/07/30 05:31:20;;;;;;;6.20;4.95;;;26.10;51.20;;;;;;4941600;28;46122;-63
2022/07/30 05:33:46;;;;;;;6.50;5.25;;;26.10;51.30;;;;;;4952259;28;44628;-67
2022/07/30 05:36:13;;;;;;;6.03;4.70;;;26.10;51.50;;;;;;4950236;28;45689;-63
2022/07/30 05:38:39;;;;;;;7.28;5.32;;;26.00;51.50;;;;;;4953493;28;45414;-61
2022/07/30 05:41:05;;;;;;;5.25;4.20;;;26.00;51.50;;;;;;4950688;28;46152;-62
2022/07/30 05:43:32;;;;;;;4.97;4.47;;;26.00;51.60;;;;;;4951478;28;45262;-63
2022/07/30 05:45:58;;;;;;;5.38;4.88;;;26.00;51.50;;;;;;4948579;28;45235;-63
2022/07/30 05:48:25;;;;;;;4.75;4.03;;;26.00;51.60;;;;;;4949666;28;45158;-62
2022/07/30 05:50:51;;;;;;;4.40;4.00;;;26.00;51.70;;;;;;4946432;28;46209;-63
2022/07/30 05:53:18;;;;;;;4.32;3.83;;;25.90;51.60;;;;;;4949059;28;45297;-62
2022/07/30 05:55:44;;;;;;;4.85;3.95;;;25.90;51.50;;;;;;4950054;28;45252;-63
2022/07/30 05:58:10;;;;;;;6.68;3.80;;;26.00;51.50;;;;;;4948906;28;45285;-61
2022/07/30 06:00:37;;;;;;;5.78;3.72;;;26.00;51.50;;;;;;4950469;28;46213;-63
2022/07/30 06:03:03;;;;;;;4.47;3.70;;;25.90;51.40;;;;;;4941797;28;45192;-64
2022/07/30 06:05:31;;;;;;;5.75;4.00;;;26.00;51.40;;;;;;4949192;28;45441;-63
2022/07/30 06:07:57;;;;;;;3.30;3.00;;;26.00;51.40;;;;;;4949388;28;45455;-62
2022/07/30 06:10:23;;;;;;;5.63;2.78;;;26.00;51.40;;;;;;4950073;28;45560;-60
2022/07/30 06:12:50;;;;;;;4.82;3.60;;;26.00;51.40;;;;;;4951185;28;45990;-60
2022/07/30 06:15:16;;;;;;;4.55;3.90;;;26.00;51.50;;;;;;4945475;28;45804;-63
2022/07/30 06:17:43;;;;;;;3.70;3.40;;;26.00;51.50;;;;;;4949479;28;45510;-61
2022/07/30 06:20:11;;;;;;;3.65;3.10;;;25.90;51.40;;;;;;4940566;28;45344;-61
2022/07/30 06:22:37;;;;;;;4.03;3.58;;;26.00;51.40;;;;;;4949809;28;45414;-68
2022/07/30 06:25:05;;;;;;;4.25;3.78;;;25.90;51.50;;;;;;4949395;28;44957;-59
2022/07/30 06:27:32;;;;;;;4.20;3.13;;;25.90;51.50;;;;;;4948695;28;44839;-64
2022/07/30 06:29:59;;;;;;;4.70;3.17;;;26.00;51.50;;;;;;4953975;28;46263;-60
2022/07/30 06:32:26;;;;;;;3.58;3.28;;;26.00;51.50;;;;;;4949538;28;46038;-63
2022/07/30 06:34:52;;;;;;;2.67;2.47;;;25.90;51.50;;;;;;4951605;28;45866;-64
2022/07/30 06:37:18;;;;;;;4.13;3.05;;;25.90;51.50;;;;;;4947416;28;46501;-60
2022/07/30 06:39:44;;;;;;;4.45;3.17;;;25.90;51.40;;;;;;4953271;28;45976;-60
2022/07/30 06:42:11;;;;;;;3.78;2.95;;;26.00;51.50;;;;;;4945680;28;45305;-59
2022/07/30 06:44:37;;;;;;;3.72;3.20;;;26.00;51.50;;;;;;4948919;28;45143;-70
2022/07/30 06:47:03;;;;;;;3.63;2.85;;;26.00;51.40;;;;;;4945009;28;45310;-65
2022/07/30 06:49:31;;;;;;;2.78;2.50;;;26.00;51.30;;;;;;4949667;28;45997;-65
2022/07/30 06:51:57;;;;;;;4.57;3.33;;;26.00;51.30;;;;;;4954159;28;45480;-66
2022/07/30 06:54:24;;;;;;;3.10;2.70;;;26.00;51.20;;;;;;4947648;28;45771;-60
2022/07/30 06:56:50;;;;;;;2.95;2.58;;;26.00;51.30;;;;;;4955019;28;45833;-61
2022/07/30 06:59:16;;;;;;;3.20;2.90;;;26.00;51.10;;;;;;4955000;28;46047;-62
2022/07/30 07:01:42;;;;;;;3.72;2.67;;;26.10;51.20;;;;;;4953545;28;45250;-64
2022/07/30 07:04:08;;;;;;;2.92;2.42;;;26.00;51.20;;;;;;4953035;28;44626;-60
2022/07/30 07:06:35;;;;;;;4.03;2.70;;;26.00;51.20;;;;;;4957876;28;45229;-63
2022/07/30 07:09:01;;;;;;;2.58;2.25;;;26.00;51.20;;;;;;4957739;28;46021;-59
2022/07/30 07:11:27;;;;;;;3.80;2.95;;;26.00;51.10;;;;;;4953429;28;45510;-63
2022/07/30 07:13:53;;;;;;;2.90;2.60;;;26.00;51.20;;;;;;4952632;28;45287;-62
2022/07/30 07:16:23;;;;;;;2.63;2.28;;;26.00;51.00;;;;;;4953160;28;45143;-58
2022/07/30 07:18:51;;;;;;;2.35;2.05;;;26.00;51.10;;;;;;4953639;28;46198;-62
2022/07/30 07:21:18;;;;;;;3.83;2.35;;;26.00;51.00;;;;;;4953490;28;45326;-62
2022/07/30 07:23:44;;;;;;;3.03;2.25;;;26.00;51.00;;;;;;4953097;28;46814;-59
2022/07/30 07:26:10;;;;;;;2.40;2.20;;;26.00;51.00;;;;;;4953313;28;45496;-63
2022/07/30 07:28:38;;;;;;;2.50;2.00;;;26.00;51.00;;;;;;4953871;28;46050;-63
2022/07/30 07:31:06;;;;;;;2.35;1.98;;;26.00;50.90;;;;;;4950428;28;45219;-61
2022/07/30 07:33:32;;;;;;;4.43;2.00;;;26.00;50.90;;;;;;4965584;28;45288;-66
2022/07/30 07:35:58;;;;;;;5.30;2.25;;;26.10;50.90;;;;;;4946131;28;45337;-66
2022/07/30 07:38:25;;;;;;;4.10;1.98;;;26.10;50.70;;;;;;4944449;28;46033;-68
2022/07/30 07:40:51;;;;;;;4.78;1.90;;;26.10;50.60;;;;;;4944773;28;45265;-64
2022/07/30 07:43:17;;;;;;;4.65;2.08;;;26.10;50.60;;;;;;4948940;28;45444;-63
2022/07/30 07:45:47;;;;;;;6.47;2.03;;;26.20;50.50;;;;;;4949913;28;45292;-60
2022/07/30 07:48:13;;;;;;;6.55;1.67;;;26.20;50.60;;;;;;4948310;28;45394;-63
2022/07/30 07:50:40;;;;;;;3.72;2.10;;;26.20;50.70;;;;;;4947650;28;45311;-60
2022/07/30 07:53:06;;;;;;;10.00;2.53;;;26.20;50.70;;;;;;4951552;28;45208;-61
2022/07/30 07:55:33;;;;;;;6.20;1.88;;;26.20;50.70;;;;;;4949199;28;44755;-63
2022/07/30 07:57:59;;;;;;;6.32;2.30;;;26.20;50.70;;;;;;4948280;28;46046;-62
2022/07/30 08:00:25;;;;;;;5.35;2.33;;;26.20;50.70;;;;;;4946796;28;45689;-62
2022/07/30 08:02:51;;;;;;;4.28;2.20;;;26.20;50.70;;;;;;4948397;28;45465;-62
2022/07/30 08:05:18;;;;;;;5.35;2.28;;;26.20;50.60;;;;;;4946116;28;45181;-61
2022/07/30 08:07:44;;;;;;;4.10;2.30;;;26.20;50.60;;;;;;4949585;28;47460;-61
2022/07/30 08:10:12;;;;;;;3.00;2.17;;;26.20;50.70;;;;;;4946861;28;45751;-61
2022/07/30 08:12:39;;;;;;;6.05;2.65;;;26.30;50.70;;;;;;4949196;28;45271;-66
2022/07/30 08:15:05;;;;;;;4.97;2.33;;;26.30;50.60;;;;;;4951538;28;44771;-60
2022/07/30 08:17:32;;;;;;;4.13;1.70;;;26.30;50.60;;;;;;4945120;28;45954;-59
2022/07/30 08:19:59;;;;;;;1.90;1.80;;;26.30;50.60;;;;;;4963531;28;45264;-65
2022/07/30 08:22:26;;;;;;;6.97;1.92;;;26.40;50.60;;;;;;4951684;28;45043;-66
2022/07/30 08:24:52;;;;;;;4.22;2.05;;;26.40;50.50;;;;;;4946456;28;44901;-61
2022/07/30 08:27:18;;;;;;;2.65;1.92;;;26.30;50.30;;;;;;4944946;28;46245;-65
2022/07/30 08:29:45;;;;;;;4.75;2.08;;;26.30;50.30;;;;;;4944086;28;45249;-61
2022/07/30 08:32:10;;;;;;;5.55;1.63;;;26.30;50.30;;;;;;4944703;28;45781;-60
2022/07/30 08:34:36;;;;;;;2.38;1.90;;;26.30;50.20;;;;;;4950880;28;45557;-67
2022/07/30 08:37:01;;;;;;;2.38;2.17;;;26.30;50.10;;;;;;4949267;28;45946;-65
2022/07/30 08:39:27;;;;;;;4.28;1.95;;;26.40;50.20;;;;;;4946012;28;45196;-62
2022/07/30 08:41:53;;;;;;;3.42;2.45;;;26.40;50.20;;;;;;4947681;28;45688;-63
2022/07/30 08:44:20;;;;;;;2.50;2.28;;;26.40;50.80;;;;;;4951688;28;46308;-62
2022/07/30 08:46:46;;;;;;;4.63;2.05;;;26.40;50.20;;;;;;4961344;28;47375;-63
2022/07/30 08:49:12;;;;;;;2.58;2.10;;;26.40;50.20;;;;;;4930052;28;45381;-62
2022/07/30 08:51:37;;;;;;;4.80;2.35;;;26.40;50.20;;;;;;4946674;28;45447;-64
2022/07/30 08:54:03;;;;;;;2.58;2.38;;;26.40;50.20;;;;;;4944191;28;46155;-62
2022/07/30 08:56:29;;;;;;;3.78;2.30;;;26.40;50.20;;;;;;4945031;28;45573;-61
2022/07/30 08:58:54;;;;;;;3.05;2.10;;;26.30;50.00;;;;;;4946892;28;45387;-62
2022/07/30 09:01:20;;;;;;;2.28;1.83;;;26.40;50.00;;;;;;4929771;28;44747;-62
2022/07/30 09:03:46;;;;;;;2.33;2.10;;;26.40;49.90;;;;;;4949508;28;44758;-61
2022/07/30 09:06:12;;;;;;;1.90;1.80;;;26.40;49.70;;;;;;4946481;28;45988;-61
2022/07/30 09:08:37;;;;;;;2.80;1.77;;;26.40;49.70;;;;;;4948347;28;45299;-64
2022/07/30 09:11:03;;;;;;;2.15;1.77;;;26.40;49.70;;;;;;4946053;28;45619;-64
2022/07/30 09:13:30;;;;;;;1.80;1.63;;;26.40;49.70;;;;;;4944026;28;45597;-62
2022/07/30 09:15:55;;;;;;;2.63;1.70;;;26.40;49.60;;;;;;4946792;28;46204;-63
2022/07/30 09:18:30;;;;;;;2.30;1.90;;;26.30;49.50;;;;;;4954544;28;45387;-57
2022/07/30 09:20:58;;;;;;;1.95;1.67;;;26.30;49.50;;;;;;4943642;28;45339;-60
2022/07/30 09:23:24;;;;;;;3.13;1.88;;;26.40;49.40;;;;;;4936287;28;45324;-63
2022/07/30 09:25:50;;;;;;;1.60;1.50;;;26.40;49.30;;;;;;4930011;28;46201;-60
2022/07/30 09:28:16;;;;;;;2.25;1.80;;;26.40;49.20;;;;;;4943420;28;44717;-60
2022/07/30 09:30:49;;;;;;;3.33;1.48;;;26.40;49.10;;;;;;4946308;28;45386;-62
2022/07/30 09:33:14;;;;;;;3.92;1.80;;;26.40;49.10;;;;;;4940518;28;45311;-62
2022/07/30 09:35:41;;;;;;;4.05;1.90;;;26.40;49.10;;;;;;4944723;28;46041;-63
2022/07/30 09:38:06;;;;;;;1.70;1.30;;;26.40;49.10;;;;;;4947723;28;45236;-63
2022/07/30 09:40:32;;;;;;;1.83;1.73;;;26.40;49.10;;;;;;4951706;28;45429;-57
2022/07/30 09:43:03;;;;;;;2.75;1.55;;;26.40;48.90;;;;;;4947279;28;45071;-61
2022/07/30 09:45:29;;;;;;;2.13;1.30;;;26.40;48.80;;;;;;4947340;28;46005;-62
2022/07/30 09:47:54;;;;;;;1.90;1.67;;;26.40;48.80;;;;;;4933138;28;45805;-61
2022/07/30 09:50:20;;;;;;;3.97;1.85;;;26.40;48.90;;;;;;4949410;28;45499;-67
2022/07/30 09:52:48;;;;;;;2.75;2.20;;;26.40;48.80;;;;;;4943630;28;45180;-68
2022/07/30 09:55:14;;;;;;;1.88;1.60;;;26.50;48.70;;;;;;4946831;28;46000;-62
2022/07/30 09:57:53;;;;;;;1.73;1.42;;;26.50;48.50;;;;;;4966160;28;45345;-63
2022/07/30 10:00:21;;;;;;;2.08;1.40;;;26.50;48.20;;;;;;4945355;28;45583;-61
2022/07/30 10:02:49;;;;;;;1.70;1.40;;;26.50;48.20;;;;;;4953876;28;45584;-62
2022/07/30 10:05:15;;;;;;;1.75;1.50;;;26.50;48.00;;;;;;4952515;28;46121;-59
2022/07/30 10:08:08;;;;;;;1.65;1.40;;;26.50;47.80;;;;;;4951247;28;45453;-61
2022/07/30 10:10:33;;;;;;;1.67;1.45;;;26.60;47.30;;;;;;4965111;28;45448;-59
2022/07/30 10:13:02;;;;;;;1.50;1.38;;;26.50;47.50;;;;;;4947026;28;45357;-66
2022/07/30 10:15:29;;;;;;;5.10;2.50;;;26.50;47.50;;;;;;4949398;28;46091;-65
2022/07/30 10:17:55;;;;;;;3.28;2.20;;;26.60;47.50;;;;;;4950136;28;45107;-63
2022/07/30 10:20:21;;;;;;;1.83;1.63;;;26.60;47.40;;;;;;4954407;28;45426;-63
2022/07/30 10:22:47;;;;;;;2.53;2.08;;;26.60;47.40;;;;;;4951036;28;45615;-66
2022/07/30 10:25:12;;;;;;;2.45;1.65;;;26.60;47.40;;;;;;4933730;28;46986;-62
2022/07/30 10:27:38;;;;;;;2.08;1.80;;;26.60;47.20;;;;;;4950925;28;45290;-62
2022/07/30 10:30:04;;;;;;;4.50;1.63;;;26.60;47.10;;;;;;4953082;28;45583;-63
2022/07/30 10:32:30;;;;;;;2.22;1.92;;;26.60;46.90;;;;;;4942620;28;45504;-62
2022/07/30 10:34:56;;;;;;;2.10;1.58;;;26.60;46.90;;;;;;4943644;28;46733;-64
2022/07/30 10:37:21;;;;;;;4.22;1.92;;;26.70;46.90;;;;;;4940233;28;46058;-64
2022/07/30 10:40:08;;;;;;;2.30;1.60;;;26.70;46.70;;;;;;4939872;28;46420;-62
2022/07/30 10:42:55;;;;;;;2.08;1.60;;;26.70;46.00;;;;;;4951955;28;45120;-62
2022/07/30 10:45:48;;;;;;;2.58;1.50;;;26.70;46.00;;;;;;4944893;28;46093;-63
2022/07/30 10:48:15;;;;;;;1.85;1.50;;;26.70;46.10;;;;;;4910398;28;45793;-61
2022/07/30 10:50:54;;;;;;;6.30;1.75;;;26.80;46.20;;;;;;4965341;28;45662;-60
2022/07/30 10:53:32;;;;;;;7.65;1.80;;;26.80;45.90;;;;;;4953916;28;45530;-64
2022/07/30 10:56:17;;;;;;;2.35;1.52;;;26.80;45.80;;;;;;4946135;28;46915;-62
2022/07/30 10:59:03;;;;;;;2.53;1.40;;;26.80;45.80;;;;;;4951654;28;45133;-64
2022/07/30 11:01:47;;;;;;;4.13;1.88;;;26.80;45.80;;;;;;4965313;28;44730;-65
2022/07/30 11:04:25;;;;;;;3.03;1.30;;;26.80;45.80;;;;;;4947522;28;45537;-63
2022/07/30 11:06:51;;;;;;;1.67;1.45;;;26.80;45.90;;;;;;4945007;28;45921;-64
2022/07/30 11:09:39;;;;;;;2.58;1.48;;;26.80;46.20;;;;;;4943529;28;45542;-64
2022/07/30 11:12:05;;;;;;;2.17;1.70;;;26.80;45.80;;;;;;4942128;28;45642;-64
2022/07/30 11:14:46;;;;;;;4.13;1.83;;;26.80;46.10;;;;;;4941815;28;45307;-65
2022/07/30 11:17:16;;;;;;;1.67;1.58;;;26.80;45.70;;;;;;4944867;28;45164;-61
2022/07/30 11:20:01;;;;;;;2.45;1.42;;;26.80;45.90;;;;;;4954299;28;45186;-61
2022/07/30 11:22:39;;;;;;;3.10;1.52;;;26.80;45.60;;;;;;4946173;28;45383;-64
2022/07/30 11:25:11;;;;;;;1.40;1.17;;;26.80;45.80;;;;;;4947006;28;45268;-58
2022/07/30 11:27:40;;;;;;;1.73;1.45;;;26.80;45.80;;;;;;4946539;28;46155;-71
2022/07/30 11:30:28;;;;;;;2.45;1.45;;;26.80;45.70;;;;;;4946537;28;45231;-61
2022/07/30 11:32:55;;;;;;;1.85;1.08;;;26.90;45.30;;;;;;4952842;28;45496;-58
2022/07/30 11:35:22;;;;;;;1.58;1.40;;;26.90;45.60;;;;;;4947826;28;45205;-63
2022/07/30 11:38:06;;;;;;;2.63;1.60;;;26.90;46.00;;;;;;4943618;28;45261;-64
2022/07/30 11:40:41;;;;;;;1.42;1.20;;;26.90;45.30;;;;;;4945182;28;45183;-62
2022/07/30 11:43:25;;;;;;;1.83;1.05;;;26.90;45.50;;;;;;4945667;28;45439;-60
2022/07/30 11:45:52;;;;;;;3.92;1.33;;;27.00;45.40;;;;;;4945207;28;45534;-65
2022/07/30 11:48:18;;;;;;;1.55;1.05;;;27.00;45.60;;;;;;4947314;28;45455;-65
2022/07/30 11:50:45;;;;;;;2.83;1.15;;;27.00;45.50;;;;;;4952573;28;45502;-62
2022/07/30 11:53:15;;;;;;;1.15;1.05;;;27.00;45.40;;;;;;4952579;28;44634;-64
2022/07/30 11:55:42;;;;;;;1.67;1.25;;;27.10;45.00;;;;;;4949091;28;45511;-62
2022/07/30 11:58:09;;;;;;;1.30;1.20;;;27.10;45.00;;;;;;4947738;28;46060;-65
2022/07/30 12:00:46;;;;;;;2.40;1.42;;;27.10;44.90;;;;;;4946735;28;44714;-61
2022/07/30 12:03:14;;;;;;;1.17;1.08;;;27.10;44.50;;;;;;4947454;28;45204;-64
2022/07/30 12:05:39;;;;;;;1.30;1.20;;;27.10;44.70;;;;;;4946729;28;45209;-61
2022/07/30 12:08:05;;;;;;;2.97;1.42;;;27.10;44.60;;;;;;4945786;28;45959;-63
2022/07/30 12:10:31;;;;;;;2.30;1.52;;;27.00;44.50;;;;;;4950285;28;45590;-60
2022/07/30 12:13:09;;;;;;;1.98;1.15;;;27.10;44.40;;;;;;4967893;28;45713;-66
2022/07/30 12:15:37;;;;;;;2.60;1.50;;;27.10;44.10;;;;;;4952031;28;45236;-62
2022/07/30 12:18:03;;;;;;;6.43;1.40;;;27.00;44.80;;;;;;4950277;28;46008;-59
2022/07/30 12:20:28;;;;;;;3.88;1.40;;;27.00;45.00;;;;;;4948373;28;45200;-63
2022/07/30 12:22:54;;;;;;;5.43;1.23;;;27.00;45.40;;;;;;4950829;28;45334;-61
2022/07/30 12:25:20;;;;;;;1.38;1.25;;;27.00;45.70;;;;;;4953071;28;44742;-64
2022/07/30 12:27:46;;;;;;;7.10;1.40;;;26.90;46.10;;;;;;4946762;28;45974;-61
2022/07/30 12:30:12;;;;;;;4.05;1.25;;;26.90;46.30;;;;;;4951181;28;45269;-63
2022/07/30 12:32:38;;;;;;;2.33;1.63;;;26.90;46.80;;;;;;4949452;28;45597;-63
2022/07/30 12:35:04;;;;;;;2.20;1.38;;;26.90;46.90;;;;;;4950394;28;45419;-64
2022/07/30 12:37:29;;;;;;;1.65;1.27;;;27.00;47.10;;;;;;4948969;28;47740;-65
2022/07/30 12:40:05;;;;;;;3.45;1.63;;;27.00;47.20;;;;;;4950574;28;45585;-65
2022/07/30 12:42:30;;;;;;;4.35;1.63;;;27.00;47.20;;;;;;4947383;28;45462;-64
2022/07/30 12:44:56;;;;;;;3.80;1.33;;;27.00;47.00;;;;;;4951315;28;45300;-62
2022/07/30 12:47:24;;;;;;;2.20;1.70;;;27.10;47.10;;;;;;4947742;28;45680;-62
2022/07/30 12:49:50;;;;;;;2.72;1.70;;;27.00;47.10;;;;;;4950071;28;45288;-65
2022/07/30 12:52:26;;;;;;;2.53;1.33;;;27.10;47.10;;;;;;4945389;28;45468;-63
2022/07/30 12:55:05;;;;;;;2.80;1.40;;;27.10;47.70;;;;;;4948786;28;45487;-62
2022/07/30 12:57:55;;;;;;;1.88;1.17;;;27.10;46.80;;;;;;4949394;28;46566;-65
2022/07/30 13:00:50;;;;;;;3.30;1.38;;;27.20;46.80;;;;;;4945454;28;45593;-66
2022/07/30 13:03:20;;;;;;;5.13;1.35;;;27.20;46.30;;;;;;4947499;28;45213;-65
2022/07/30 13:05:48;;;;;;;2.92;1.50;;;27.20;45.80;;;;;;4933866;28;45791;-58
2022/07/30 13:08:14;;;;;;;2.72;1.20;;;27.20;45.70;;;;;;4956108;28;46138;-63
2022/07/30 13:10:53;;;;;;;3.47;1.30;;;27.20;45.40;;;;;;4947230;28;44867;-64
2022/07/30 13:13:19;;;;;;;1.13;1.02;;;27.30;44.20;;;;;;4948194;28;45295;-62
2022/07/30 13:15:44;;;;;;;2.03;1.30;;;27.30;44.50;;;;;;4951939;28;44687;-67
2022/07/30 13:18:10;;;;;;;2.58;1.50;;;27.30;44.30;;;;;;4932193;28;46055;-66
2022/07/30 13:20:35;;;;;;;5.68;1.33;;;27.30;44.10;;;;;;4949070;28;45414;-68
2022/07/30 13:23:01;;;;;;;4.40;1.60;;;27.40;43.90;;;;;;4950420;28;45215;-62
2022/07/30 13:25:26;;;;;;;6.65;1.40;;;27.40;43.30;;;;;;4953077;28;45553;-63
2022/07/30 13:27:52;;;;;;;3.58;1.42;;;27.50;43.20;;;;;;4941142;28;46079;-66
2022/07/30 13:30:18;;;;;;;1.58;1.20;;;27.50;42.80;;;;;;4949843;28;45027;-64
2022/07/30 13:32:43;;;;;;;5.13;1.23;;;27.50;42.60;;;;;;4952967;28;44829;-64
2022/07/30 13:35:09;;;;;;;4.38;1.50;;;27.60;42.30;;;;;;4943523;28;44819;-62
2022/07/30 13:37:34;;;;;;;5.80;1.42;;;27.60;42.30;;;;;;4957291;28;46030;-66
2022/07/30 13:40:00;;;;;;;1.65;1.25;;;27.60;41.90;;;;;;4944471;28;45390;-63
2022/07/30 13:42:25;;;;;;;3.85;1.10;;;27.60;41.80;;;;;;4948551;28;44669;-67
2022/07/30 13:44:51;;;;;;;6.45;1.50;;;27.60;41.40;;;;;;4948643;28;45664;-63
2022/07/30 13:47:17;;;;;;;2.45;1.30;;;27.70;41.00;;;;;;4948134;28;45306;-65
2022/07/30 13:49:45;;;;;;;2.60;1.20;;;27.70;40.60;;;;;;4949968;28;45561;-63
2022/07/30 13:52:10;;;;;;;1.48;1.13;;;27.70;40.00;;;;;;4944696;28;45481;-66
2022/07/30 13:54:36;;;;;;;2.13;1.13;;;27.70;39.90;;;;;;4950128;28;45470;-61
2022/07/30 13:57:02;;;;;;;2.75;0.85;;;27.70;39.30;;;;;;4950217;28;45988;-62
2022/07/30 13:59:27;;;;;;;1.33;1.00;;;27.60;39.20;;;;;;4945985;28;45312;-64
2022/07/30 14:02:02;;;;;;;;;;;27.70;39.10;;;;;;4947380;28;45346;-65
2022/07/30 14:04:28;;;;;;;1.23;1.10;;;27.60;36.60;;;;;;4950063;28;44962;-62
2022/07/30 14:06:54;;;;;;;5.95;1.50;;;27.60;38.90;;;;;;4949286;28;45257;-64
2022/07/30 14:09:20;;;;;;;1.52;1.10;;;27.70;38.70;;;;;;4945265;28;45415;-62
2022/07/30 14:11:45;;;;;;;1.40;1.15;;;27.70;38.60;;;;;;4947591;28;45204;-65
2022/07/30 14:14:11;;;;;;;1.98;0.93;;;27.70;38.60;;;;;;4949717;28;45739;-63
2022/07/30 14:16:36;;;;;;;1.73;0.82;;;27.70;38.70;;;;;;4944271;28;45580;-64
2022/07/30 14:19:02;;;;;;;3.33;1.10;;;27.70;38.90;;;;;;4952593;28;45137;-64
2022/07/30 14:21:28;;;;;;;5.78;1.38;;;27.70;39.20;;;;;;4950539;28;45513;-64
2022/07/30 14:23:54;;;;;;;5.68;1.50;;;27.70;39.30;;;;;;4955228;28;45097;-63
2022/07/30 14:26:19;;;;;;;2.00;1.35;;;27.80;39.50;;;;;;4952651;28;46417;-63
2022/07/30 14:28:45;;;;;;;4.35;1.55;;;27.80;39.60;;;;;;4948908;28;45465;-64
2022/07/30 14:31:11;;;;;;;2.17;1.50;;;27.80;39.70;;;;;;4948899;28;45149;-62
2022/07/30 14:33:36;;;;;;;4.38;1.50;;;27.80;39.70;;;;;;4949100;28;45545;-61
2022/07/30 14:36:02;;;;;;;1.70;1.33;;;27.80;39.70;;;;;;4952189;28;46277;-62
2022/07/30 14:38:27;;;;;;;3.58;1.63;;;27.80;39.80;;;;;;4947313;28;45546;-63
2022/07/30 14:40:53;;;;;;;3.30;1.15;;;27.70;39.80;;;;;;4953212;28;45983;-63
2022/07/30 14:43:18;;;;;;;4.00;1.42;;;27.80;39.90;;;;;;4954475;28;45317;-62
2022/07/30 14:45:47;;;;;;;4.20;1.65;;;27.80;39.90;;;;;;4950979;28;46108;-62
2022/07/30 14:48:12;;;;;;;6.28;1.55;;;27.80;39.90;;;;;;4945091;28;45329;-64
2022/07/30 14:50:38;;;;;;;3.75;1.40;;;27.80;39.90;;;;;;4949348;28;45580;-66
2022/07/30 14:53:04;;;;;;;1.38;1.27;;;27.80;39.90;;;;;;4952138;28;45246;-62
2022/07/30 14:55:29;;;;;;;3.00;1.30;;;27.80;39.90;;;;;;4947104;28;45949;-62
2022/07/30 14:57:55;;;;;;;1.88;1.23;;;27.80;39.80;;;;;;4949428;28;45581;-63
2022/07/30 15:00:20;;;;;;;4.22;2.10;;;27.80;39.80;;;;;;4950259;28;45094;-64
2022/07/30 15:02:46;;;;;;;2.13;1.30;;;27.80;39.70;;;;;;4954135;28;45313;-64
2022/07/30 15:05:11;;;;;;;5.07;1.20;;;27.80;39.70;;;;;;4954901;28;45048;-61
2022/07/30 15:07:37;;;;;;;2.25;1.13;;;27.80;39.60;;;;;;4951298;28;44669;-64
2022/07/30 15:10:05;;;;;;;4.30;1.38;;;27.90;39.50;;;;;;4946602;28;45713;-65
2022/07/30 15:12:31;;;;;;;2.22;1.40;;;27.90;39.60;;;;;;4945569;28;45234;-62
2022/07/30 15:14:57;;;;;;;3.83;1.30;;;27.90;39.40;;;;;;4953779;28;45940;-65
2022/07/30 15:17:22;;;;;;;3.45;1.40;;;27.90;39.40;;;;;;4950599;28;45518;-62
2022/07/30 15:19:48;;;;;;;1.88;1.20;;;28.00;39.20;;;;;;4940712;28;45628;-62
2022/07/30 15:22:14;;;;;;;2.33;1.40;;;27.90;38.90;;;;;;4953016;28;44717;-67
2022/07/30 15:24:39;;;;;;;1.55;1.35;;;27.90;38.70;;;;;;4948102;28;46167;-63
2022/07/30 15:27:05;;;;;;;3.53;1.40;;;27.80;38.70;;;;;;4951985;28;45271;-61
2022/07/30 15:29:31;;;;;;;2.88;1.55;;;27.90;39.10;;;;;;4944493;28;45561;-64
2022/07/30 15:31:58;;;;;;;1.85;1.30;;;27.90;39.40;;;;;;4948036;28;44733;-65
2022/07/30 15:34:24;;;;;;;2.33;1.23;;;27.80;39.80;;;;;;4946604;28;45969;-65
2022/07/30 15:36:50;;;;;;;4.53;1.25;;;27.80;40.00;;;;;;4956624;28;45302;-61
2022/07/30 15:39:16;;;;;;;2.80;1.42;;;27.80;40.40;;;;;;4947910;28;45124;-63
2022/07/30 15:41:41;;;;;;;1.77;1.50;;;27.80;40.60;;;;;;4943372;28;45510;-64
2022/07/30 15:44:07;;;;;;;2.80;1.40;;;27.80;40.80;;;;;;4945924;28;46486;-69
2022/07/30 15:46:32;;;;;;;3.72;1.50;;;27.80;41.00;;;;;;4948708;28;45173;-72
2022/07/30 15:48:58;;;;;;;1.77;1.27;;;27.80;41.20;;;;;;4953312;28;45385;-63
2022/07/30 15:51:24;;;;;;;3.42;1.60;;;27.80;41.40;;;;;;4944201;28;45094;-62